Jefferson, OH

8:40 PM EDT on October 22, 2014 (GMT -0400)
Ashtabula County | Change Station
CLOSE
Current Station
Airport
Location: Ashtabula,
Elevation: 922 ft
Nearby Weather Stations

Elev 922 ft 41.78 °N, 80.70 °W | Updated 47 minutes ago

Clear
Clear
41 °F
Feels Like 41 °F
N
0
Wind Variable Wind from North

Today
High -- | Low -- °F
--% Chance of Precip.
Yesterday
High -- | Low -- °F
Precip. -- in
7:43 AM 6:30 PM
Waning Crescent, 1% visible
Pressure 30.24 in
Visibility 10.0 miles
Clouds Clear
Dew Point 39 °F
Humidity 93%
Rainfall 0.03 in
Snow Depth Not available.
UV 0 out of 12
Pollen .40 out of 12
Ozone Good
PM2.5 Good
Flu Activity Sporadic
METAR KHZY 222353Z AUTO 00000KT 10SM CLR 05/04 A3023 RMK AO2 SLP240 T00500039 10100 20050 56005

More Conditions Fewer Conditions

Pressure 30.24 in
Visibility 10.0 miles
Clouds Clear
Dew Point 39 °F
Humidity 93%
Rainfall 0.03 in
Snow Depth Not available.
UV 0 out of 12
Pollen .40 out of 12
Ozone Good
PM2.5 Good
Flu Activity Sporadic
METAR KHZY 222353Z AUTO 00000KT 10SM CLR 05/04 A3023 RMK AO2 SLP240 T00500039 10100 20050 56005

More Conditions Fewer Conditions

10-Day Weather Forecast

Almanac

Astronomy

Oct. 22, 2014 Rise Set
Actual Time 7:43 AM EDT 6:30 PM EDT
Civil Twilight 7:14 AM EDT 6:59 PM EDT
Nautical Twilight 6:42 AM EDT 7:31 PM EDT
Astronomical Twilight 6:10 AM EDT 8:03 PM EDT
Moon 6:21 AM EDT (10/22) 5:57 PM EDT (10/22)
Length of Visible Light 11h 44m
Length of Day
10h 47m
Tomorrow will be 2m 37s shorter.
Waning Crescent, 1% of the Moon is Illuminated
Today
Waning Crescent
Oct 23
New
Oct 30
First Quarter
Nov 6
Full
Nov 14
Last Quarter

Today's Extremes

State Highs State Lows

Community

WunderPhotos

Upload Photos

1,764,098 photos uploaded!

WunderBlogs® & News

Nearby

Air Quality

  Air Quality AQ Index Pollutant
Yesterday Good
PM10
Yesterday Good
OZONE
Current Good
PM2.5
Current Good
OZONE
Wednesday Good
PM2.5
Wednesday Good
OZONE
Thursday Good
PM2.5
Thursday Good
OZONE
Friday Good
PM2.5
Friday Good
OZONE
Saturday Good
PM2.5
Saturday Good
OZONE
Sunday Good
PM2.5
Sunday Good
OZONE

Snow Depth

Station Depth Elevation
No new snow has been reported.

Earthquake Activity

City Distance Mag. Time & Date
No recent earthquake activity has been reported nearby.
Minimum magnitude displayed is 2.5.

Coastal Water Temperatures

Place Temperature
Fairport, OH 52.0 °F
Cleveland, OH 57.9 °F

Nearby Weather Stations